Terminal Aerodrome Forecast
Issued by NWS Albany, NY

Home | Current Version | Previous Version | Text Only | Print | Product List | Glossary On
Versions: 1 2 3 4 5 6 7 8 9 10 11 12 13 14 15 16 17 18 19 20 21 22
148
FTUS41 KALY 201415 AAA
TAFALB
TAF AMD
KALB 201415Z 2014/2112 29010G17KT P6SM VCSH SCT035 BKN050
      TEMPO 2014/2016 4SM -SHSN BKN025 OVC035
     FM201600 28018G30KT P6SM VCSH BKN050
     FM202200 26009KT P6SM SCT040
     FM210400 19005KT P6SM SCT150=

USA.gov is the U.S. government's official web portal to all federal, state and local government web resources and services.